sensor_id;sensor_type;location;lat;lon;timestamp;temperature;humidity
59007;DHT22;44792;52.760;6.726;2023-05-10T00:00:00;14.50;99.90
59007;DHT22;44792;52.760;6.726;2023-05-10T00:02:25;14.50;99.90
59007;DHT22;44792;52.760;6.726;2023-05-10T00:04:52;14.40;99.90
59007;DHT22;44792;52.760;6.726;2023-05-10T00:07:17;14.40;99.90
59007;DHT22;44792;52.760;6.726;2023-05-10T00:09:43;14.40;99.90
59007;DHT22;44792;52.760;6.726;2023-05-10T00:12:09;14.40;99.90
59007;DHT22;44792;52.760;6.726;2023-05-10T00:14:35;14.30;99.90
59007;DHT22;44792;52.760;6.726;2023-05-10T00:17:01;14.40;99.90
59007;DHT22;44792;52.760;6.726;2023-05-10T00:19:26;14.30;99.90
59007;DHT22;44792;52.760;6.726;2023-05-10T00:21:52;14.30;99.90
59007;DHT22;44792;52.760;6.726;2023-05-10T00:24:18;14.20;99.90
59007;DHT22;44792;52.760;6.726;2023-05-10T00:26:44;14.20;99.90
59007;DHT22;44792;52.760;6.726;2023-05-10T00:29:10;14.30;99.90
59007;DHT22;44792;52.760;6.726;2023-05-10T00:31:35;14.30;99.90
59007;DHT22;44792;52.760;6.726;2023-05-10T00:34:01;14.20;99.90
59007;DHT22;44792;52.760;6.726;2023-05-10T00:36:27;14.20;99.90
59007;DHT22;44792;52.760;6.726;2023-05-10T00:38:53;14.20;99.90
59007;DHT22;44792;52.760;6.726;2023-05-10T00:41:18;14.20;99.90
59007;DHT22;44792;52.760;6.726;2023-05-10T00:43:44;14.20;99.90
59007;DHT22;44792;52.760;6.726;2023-05-10T00:46:10;14.20;99.90
59007;DHT22;44792;52.760;6.726;2023-05-10T00:48:36;14.20;99.90
59007;DHT22;44792;52.760;6.726;2023-05-10T00:51:02;14.20;99.90
59007;DHT22;44792;52.760;6.726;2023-05-10T00:53:29;14.20;99.90
59007;DHT22;44792;52.760;6.726;2023-05-10T00:55:56;14.10;99.90
59007;DHT22;44792;52.760;6.726;2023-05-10T00:58:22;14.20;99.90
59007;DHT22;44792;52.760;6.726;2023-05-10T01:00:49;14.10;99.90
59007;DHT22;44792;52.760;6.726;2023-05-10T01:03:15;14.20;99.90
59007;DHT22;44792;52.760;6.726;2023-05-10T01:05:42;14.10;99.90
59007;DHT22;44792;52.760;6.726;2023-05-10T01:08:08;14.10;99.90
59007;DHT22;44792;52.760;6.726;2023-05-10T01:10:34;14.10;99.90
59007;DHT22;44792;52.760;6.726;2023-05-10T01:13:00;14.10;99.90
59007;DHT22;44792;52.760;6.726;2023-05-10T01:15:26;14.10;99.90
59007;DHT22;44792;52.760;6.726;2023-05-10T01:17:52;14.10;99.90
59007;DHT22;44792;52.760;6.726;2023-05-10T01:20:18;14.10;99.90
59007;DHT22;44792;52.760;6.726;2023-05-10T01:31:30;14.00;99.90
59007;DHT22;44792;52.760;6.726;2023-05-10T01:34:09;14.10;99.90
59007;DHT22;44792;52.760;6.726;2023-05-10T01:36:58;14.00;99.90
59007;DHT22;44792;52.760;6.726;2023-05-10T01:42:20;14.00;99.90
59007;DHT22;44792;52.760;6.726;2023-05-10T01:47:34;14.00;99.90
59007;DHT22;44792;52.760;6.726;2023-05-10T01:50:03;14.00;99.90
59007;DHT22;44792;52.760;6.726;2023-05-10T01:52:35;14.00;99.90
59007;DHT22;44792;52.760;6.726;2023-05-10T01:55:02;14.00;99.90
59007;DHT22;44792;52.760;6.726;2023-05-10T01:57:33;13.90;99.90
59007;DHT22;44792;52.760;6.726;2023-05-10T02:00:01;13.90;99.90
59007;DHT22;44792;52.760;6.726;2023-05-10T02:02:30;13.90;99.90
59007;DHT22;44792;52.760;6.726;2023-05-10T02:04:59;13.90;99.90
59007;DHT22;44792;52.760;6.726;2023-05-10T02:07:26;13.90;99.90
59007;DHT22;44792;52.760;6.726;2023-05-10T02:09:53;13.90;99.90
59007;DHT22;44792;52.760;6.726;2023-05-10T02:12:22;13.90;99.90
59007;DHT22;44792;52.760;6.726;2023-05-10T02:14:51;13.90;99.90
59007;DHT22;44792;52.760;6.726;2023-05-10T02:17:18;13.90;99.90
59007;DHT22;44792;52.760;6.726;2023-05-10T02:19:44;13.90;99.90
59007;DHT22;44792;52.760;6.726;2023-05-10T02:22:12;13.90;99.90
59007;DHT22;44792;52.760;6.726;2023-05-10T02:24:38;13.90;99.90
59007;DHT22;44792;52.760;6.726;2023-05-10T02:27:06;13.80;99.90
59007;DHT22;44792;52.760;6.726;2023-05-10T02:29:32;13.80;99.90
59007;DHT22;44792;52.760;6.726;2023-05-10T02:31:59;13.80;99.90
59007;DHT22;44792;52.760;6.726;2023-05-10T02:34:26;13.80;99.90
59007;DHT22;44792;52.760;6.726;2023-05-10T02:36:54;13.80;99.90
59007;DHT22;44792;52.760;6.726;2023-05-10T02:39:21;13.80;99.90
59007;DHT22;44792;52.760;6.726;2023-05-10T02:41:48;13.80;99.90
59007;DHT22;44792;52.760;6.726;2023-05-10T02:44:18;13.80;99.90
59007;DHT22;44792;52.760;6.726;2023-05-10T02:46:45;13.70;99.90
59007;DHT22;44792;52.760;6.726;2023-05-10T02:49:12;13.70;99.90
59007;DHT22;44792;52.760;6.726;2023-05-10T02:51:42;13.70;99.90
59007;DHT22;44792;52.760;6.726;2023-05-10T02:54:22;13.70;99.90
59007;DHT22;44792;52.760;6.726;2023-05-10T02:56:56;13.70;99.90
59007;DHT22;44792;52.760;6.726;2023-05-10T02:59:22;13.70;99.90
59007;DHT22;44792;52.760;6.726;2023-05-10T03:01:48;13.70;99.90
59007;DHT22;44792;52.760;6.726;2023-05-10T03:04:14;13.70;99.90
59007;DHT22;44792;52.760;6.726;2023-05-10T03:06:39;13.70;99.90
59007;DHT22;44792;52.760;6.726;2023-05-10T03:09:05;13.70;99.90
59007;DHT22;44792;52.760;6.726;2023-05-10T03:17:15;13.70;99.90
59007;DHT22;44792;52.760;6.726;2023-05-10T03:19:55;13.70;99.90
59007;DHT22;44792;52.760;6.726;2023-05-10T03:22:32;13.70;99.90
59007;DHT22;44792;52.760;6.726;2023-05-10T03:24:58;13.70;99.90
59007;DHT22;44792;52.760;6.726;2023-05-10T03:27:27;13.70;99.90
59007;DHT22;44792;52.760;6.726;2023-05-10T03:29:54;13.70;99.90
59007;DHT22;44792;52.760;6.726;2023-05-10T03:32:20;13.70;99.90
59007;DHT22;44792;52.760;6.726;2023-05-10T03:34:46;13.60;99.90
59007;DHT22;44792;52.760;6.726;2023-05-10T03:37:11;13.60;99.90
59007;DHT22;44792;52.760;6.726;2023-05-10T03:39:37;13.60;99.90
59007;DHT22;44792;52.760;6.726;2023-05-10T03:42:03;13.60;99.90
59007;DHT22;44792;52.760;6.726;2023-05-10T03:44:29;13.60;99.90
59007;DHT22;44792;52.760;6.726;2023-05-10T03:46:55;13.60;99.90
59007;DHT22;44792;52.760;6.726;2023-05-10T03:49:22;13.60;99.90
59007;DHT22;44792;52.760;6.726;2023-05-10T03:51:48;13.60;99.90
59007;DHT22;44792;52.760;6.726;2023-05-10T03:54:14;13.60;99.90
59007;DHT22;44792;52.760;6.726;2023-05-10T03:56:40;13.60;99.90
59007;DHT22;44792;52.760;6.726;2023-05-10T03:59:05;13.60;99.90
59007;DHT22;44792;52.760;6.726;2023-05-10T04:01:33;13.60;99.90
59007;DHT22;44792;52.760;6.726;2023-05-10T04:03:59;13.60;99.90
59007;DHT22;44792;52.760;6.726;2023-05-10T04:06:25;13.60;99.90
59007;DHT22;44792;52.760;6.726;2023-05-10T04:08:51;13.50;99.90
59007;DHT22;44792;52.760;6.726;2023-05-10T04:11:16;13.50;99.90
59007;DHT22;44792;52.760;6.726;2023-05-10T04:13:42;13.50;99.90
59007;DHT22;44792;52.760;6.726;2023-05-10T04:16:08;13.60;99.90
59007;DHT22;44792;52.760;6.726;2023-05-10T04:18:34;13.60;99.90
59007;DHT22;44792;52.760;6.726;2023-05-10T04:21:00;13.50;99.90
59007;DHT22;44792;52.760;6.726;2023-05-10T04:23:29;13.50;99.90
59007;DHT22;44792;52.760;6.726;2023-05-10T04:26:01;13.50;99.90
59007;DHT22;44792;52.760;6.726;2023-05-10T04:28:27;13.50;99.90
59007;DHT22;44792;52.760;6.726;2023-05-10T04:30:53;13.50;99.90
59007;DHT22;44792;52.760;6.726;2023-05-10T04:33:18;13.60;99.90
59007;DHT22;44792;52.760;6.726;2023-05-10T04:35:44;13.50;99.90
59007;DHT22;44792;52.760;6.726;2023-05-10T04:38:10;13.50;99.90
59007;DHT22;44792;52.760;6.726;2023-05-10T04:40:36;13.50;99.90
59007;DHT22;44792;52.760;6.726;2023-05-10T04:43:02;13.50;99.90
59007;DHT22;44792;52.760;6.726;2023-05-10T04:45:27;13.60;99.90
59007;DHT22;44792;52.760;6.726;2023-05-10T04:47:53;13.50;99.90
59007;DHT22;44792;52.760;6.726;2023-05-10T04:50:18;13.50;99.90
59007;DHT22;44792;52.760;6.726;2023-05-10T04:52:44;13.50;99.90
59007;DHT22;44792;52.760;6.726;2023-05-10T04:55:10;13.50;99.90
59007;DHT22;44792;52.760;6.726;2023-05-10T04:57:36;13.50;99.90
59007;DHT22;44792;52.760;6.726;2023-05-10T05:00:01;13.50;99.90
59007;DHT22;44792;52.760;6.726;2023-05-10T05:02:27;13.50;99.90
59007;DHT22;44792;52.760;6.726;2023-05-10T05:04:55;13.50;99.90
59007;DHT22;44792;52.760;6.726;2023-05-10T05:07:21;13.50;99.90
59007;DHT22;44792;52.760;6.726;2023-05-10T05:09:46;13.60;99.90
59007;DHT22;44792;52.760;6.726;2023-05-10T05:12:12;13.50;99.90
59007;DHT22;44792;52.760;6.726;2023-05-10T05:14:40;13.50;99.90
59007;DHT22;44792;52.760;6.726;2023-05-10T05:17:06;13.50;99.90
59007;DHT22;44792;52.760;6.726;2023-05-10T05:19:32;13.50;99.90
59007;DHT22;44792;52.760;6.726;2023-05-10T05:21:58;13.50;99.90
59007;DHT22;44792;52.760;6.726;2023-05-10T05:24:24;13.60;99.90
59007;DHT22;44792;52.760;6.726;2023-05-10T05:26:50;13.60;99.90
59007;DHT22;44792;52.760;6.726;2023-05-10T05:29:15;13.60;99.90
59007;DHT22;44792;52.760;6.726;2023-05-10T05:31:41;13.50;99.90
59007;DHT22;44792;52.760;6.726;2023-05-10T05:34:07;13.50;99.90
59007;DHT22;44792;52.760;6.726;2023-05-10T05:36:35;13.50;99.90
59007;DHT22;44792;52.760;6.726;2023-05-10T05:39:01;13.50;99.90
59007;DHT22;44792;52.760;6.726;2023-05-10T05:41:27;13.60;99.90
59007;DHT22;44792;52.760;6.726;2023-05-10T05:43:52;13.50;99.90
59007;DHT22;44792;52.760;6.726;2023-05-10T05:46:18;13.50;99.90
59007;DHT22;44792;52.760;6.726;2023-05-10T05:48:43;13.50;99.90
59007;DHT22;44792;52.760;6.726;2023-05-10T05:51:09;13.60;99.90
59007;DHT22;44792;52.760;6.726;2023-05-10T05:53:35;13.50;99.90
59007;DHT22;44792;52.760;6.726;2023-05-10T05:56:01;13.60;99.90
59007;DHT22;44792;52.760;6.726;2023-05-10T05:58:27;13.50;99.90
59007;DHT22;44792;52.760;6.726;2023-05-10T06:00:53;13.50;99.90
59007;DHT22;44792;52.760;6.726;2023-05-10T06:03:19;13.50;99.90
59007;DHT22;44792;52.760;6.726;2023-05-10T06:05:45;13.50;99.90
59007;DHT22;44792;52.760;6.726;2023-05-10T06:08:11;13.50;99.90
59007;DHT22;44792;52.760;6.726;2023-05-10T06:10:37;13.50;99.90
59007;DHT22;44792;52.760;6.726;2023-05-10T06:13:03;13.60;99.90
59007;DHT22;44792;52.760;6.726;2023-05-10T06:15:28;13.50;99.90
59007;DHT22;44792;52.760;6.726;2023-05-10T06:17:54;13.60;99.90
59007;DHT22;44792;52.760;6.726;2023-05-10T06:20:20;13.60;99.90
59007;DHT22;44792;52.760;6.726;2023-05-10T06:22:46;13.60;99.90
59007;DHT22;44792;52.760;6.726;2023-05-10T06:25:12;13.60;99.90
59007;DHT22;44792;52.760;6.726;2023-05-10T06:27:37;13.60;99.90
59007;DHT22;44792;52.760;6.726;2023-05-10T06:30:04;13.70;99.90
59007;DHT22;44792;52.760;6.726;2023-05-10T06:32:30;13.70;99.90
59007;DHT22;44792;52.760;6.726;2023-05-10T06:34:56;13.70;99.90
59007;DHT22;44792;52.760;6.726;2023-05-10T06:37:22;13.70;99.90
59007;DHT22;44792;52.760;6.726;2023-05-10T06:39:48;13.80;99.90
59007;DHT22;44792;52.760;6.726;2023-05-10T06:42:13;13.80;99.90
59007;DHT22;44792;52.760;6.726;2023-05-10T06:44:39;13.80;99.90
59007;DHT22;44792;52.760;6.726;2023-05-10T06:47:05;13.80;99.90
59007;DHT22;44792;52.760;6.726;2023-05-10T06:49:30;13.80;99.90
59007;DHT22;44792;52.760;6.726;2023-05-10T06:51:56;13.80;99.90
59007;DHT22;44792;52.760;6.726;2023-05-10T06:54:22;13.80;99.90
59007;DHT22;44792;52.760;6.726;2023-05-10T06:56:48;13.80;99.90
59007;DHT22;44792;52.760;6.726;2023-05-10T06:59:14;13.80;99.90
59007;DHT22;44792;52.760;6.726;2023-05-10T07:01:42;13.90;99.90
59007;DHT22;44792;52.760;6.726;2023-05-10T07:04:08;13.90;99.90
59007;DHT22;44792;52.760;6.726;2023-05-10T07:06:33;13.90;99.90
59007;DHT22;44792;52.760;6.726;2023-05-10T07:09:00;13.90;99.90
59007;DHT22;44792;52.760;6.726;2023-05-10T07:11:25;13.90;99.90
59007;DHT22;44792;52.760;6.726;2023-05-10T07:13:52;13.90;99.90
59007;DHT22;44792;52.760;6.726;2023-05-10T07:16:18;13.90;99.90
59007;DHT22;44792;52.760;6.726;2023-05-10T07:18:44;13.90;99.90
59007;DHT22;44792;52.760;6.726;2023-05-10T07:21:09;13.90;99.90
59007;DHT22;44792;52.760;6.726;2023-05-10T07:23:35;13.90;99.90
59007;DHT22;44792;52.760;6.726;2023-05-10T07:26:01;13.90;99.90
59007;DHT22;44792;52.760;6.726;2023-05-10T07:28:27;13.90;99.90
59007;DHT22;44792;52.760;6.726;2023-05-10T07:30:53;13.90;99.90
59007;DHT22;44792;52.760;6.726;2023-05-10T07:33:19;13.90;99.90
59007;DHT22;44792;52.760;6.726;2023-05-10T07:35:44;13.90;99.90
59007;DHT22;44792;52.760;6.726;2023-05-10T07:38:10;13.90;99.90
59007;DHT22;44792;52.760;6.726;2023-05-10T07:40:36;13.90;99.90
59007;DHT22;44792;52.760;6.726;2023-05-10T07:43:02;13.90;99.90
59007;DHT22;44792;52.760;6.726;2023-05-10T07:45:28;13.90;99.90
59007;DHT22;44792;52.760;6.726;2023-05-10T07:47:54;14.00;99.90
59007;DHT22;44792;52.760;6.726;2023-05-10T07:50:20;14.00;99.90
59007;DHT22;44792;52.760;6.726;2023-05-10T07:52:47;14.00;99.90
59007;DHT22;44792;52.760;6.726;2023-05-10T07:55:13;14.00;99.90
59007;DHT22;44792;52.760;6.726;2023-05-10T07:57:39;14.00;99.90
59007;DHT22;44792;52.760;6.726;2023-05-10T08:00:06;14.10;99.90
59007;DHT22;44792;52.760;6.726;2023-05-10T08:02:34;14.10;99.90
59007;DHT22;44792;52.760;6.726;2023-05-10T08:05:00;14.10;99.90
59007;DHT22;44792;52.760;6.726;2023-05-10T08:07:26;14.10;99.90
59007;DHT22;44792;52.760;6.726;2023-05-10T08:09:51;14.10;99.90
59007;DHT22;44792;52.760;6.726;2023-05-10T08:12:17;14.20;99.90
59007;DHT22;44792;52.760;6.726;2023-05-10T08:14:42;14.20;99.90
59007;DHT22;44792;52.760;6.726;2023-05-10T08:17:08;14.30;99.90
59007;DHT22;44792;52.760;6.726;2023-05-10T08:19:34;14.30;99.90
59007;DHT22;44792;52.760;6.726;2023-05-10T08:22:00;14.30;99.90
59007;DHT22;44792;52.760;6.726;2023-05-10T08:24:26;14.30;99.90
59007;DHT22;44792;52.760;6.726;2023-05-10T08:26:51;14.30;99.90
59007;DHT22;44792;52.760;6.726;2023-05-10T08:29:17;14.30;99.90
59007;DHT22;44792;52.760;6.726;2023-05-10T08:31:43;14.30;99.90
59007;DHT22;44792;52.760;6.726;2023-05-10T08:34:09;14.30;99.90
59007;DHT22;44792;52.760;6.726;2023-05-10T08:36:34;14.30;99.90
59007;DHT22;44792;52.760;6.726;2023-05-10T08:39:00;14.40;99.90
59007;DHT22;44792;52.760;6.726;2023-05-10T08:41:26;14.40;99.90
59007;DHT22;44792;52.760;6.726;2023-05-10T08:43:55;14.40;99.90
59007;DHT22;44792;52.760;6.726;2023-05-10T08:46:21;14.40;99.90
59007;DHT22;44792;52.760;6.726;2023-05-10T08:48:49;14.40;99.90
59007;DHT22;44792;52.760;6.726;2023-05-10T08:51:20;14.40;99.90
59007;DHT22;44792;52.760;6.726;2023-05-10T08:53:47;14.40;99.90
59007;DHT22;44792;52.760;6.726;2023-05-10T08:56:13;14.50;99.90
59007;DHT22;44792;52.760;6.726;2023-05-10T08:58:41;14.60;99.90
59007;DHT22;44792;52.760;6.726;2023-05-10T09:01:07;14.60;99.90
59007;DHT22;44792;52.760;6.726;2023-05-10T09:03:34;14.60;99.90
59007;DHT22;44792;52.760;6.726;2023-05-10T09:06:00;14.60;99.90
59007;DHT22;44792;52.760;6.726;2023-05-10T09:08:26;14.70;99.90
59007;DHT22;44792;52.760;6.726;2023-05-10T09:10:53;14.70;99.90
59007;DHT22;44792;52.760;6.726;2023-05-10T09:13:19;14.70;99.90
59007;DHT22;44792;52.760;6.726;2023-05-10T09:15:47;14.70;99.90
59007;DHT22;44792;52.760;6.726;2023-05-10T09:18:13;14.70;99.90
59007;DHT22;44792;52.760;6.726;2023-05-10T09:20:40;14.70;99.90
59007;DHT22;44792;52.760;6.726;2023-05-10T09:23:06;14.70;99.90
59007;DHT22;44792;52.760;6.726;2023-05-10T09:25:32;14.90;99.90
59007;DHT22;44792;52.760;6.726;2023-05-10T09:28:01;14.90;99.90
59007;DHT22;44792;52.760;6.726;2023-05-10T09:30:28;14.90;99.90
59007;DHT22;44792;52.760;6.726;2023-05-10T09:32:55;14.90;99.90
59007;DHT22;44792;52.760;6.726;2023-05-10T09:35:23;14.90;99.90
59007;DHT22;44792;52.760;6.726;2023-05-10T09:37:51;14.90;99.90
59007;DHT22;44792;52.760;6.726;2023-05-10T09:40:23;14.90;99.90
59007;DHT22;44792;52.760;6.726;2023-05-10T09:43:06;14.90;99.90
59007;DHT22;44792;52.760;6.726;2023-05-10T09:45:34;14.80;99.90
59007;DHT22;44792;52.760;6.726;2023-05-10T09:48:02;14.90;99.90
59007;DHT22;44792;52.760;6.726;2023-05-10T09:50:28;14.80;99.90
59007;DHT22;44792;52.760;6.726;2023-05-10T09:52:59;14.90;99.90
59007;DHT22;44792;52.760;6.726;2023-05-10T09:58:06;14.90;99.90
59007;DHT22;44792;52.760;6.726;2023-05-10T10:00:37;15.00;99.90
59007;DHT22;44792;52.760;6.726;2023-05-10T10:03:04;15.00;99.90
59007;DHT22;44792;52.760;6.726;2023-05-10T10:05:31;15.10;99.90
59007;DHT22;44792;52.760;6.726;2023-05-10T10:07:57;15.10;99.90
59007;DHT22;44792;52.760;6.726;2023-05-10T10:10:27;15.10;99.90
59007;DHT22;44792;52.760;6.726;2023-05-10T10:12:54;15.10;99.90
59007;DHT22;44792;52.760;6.726;2023-05-10T10:15:21;15.20;99.90
59007;DHT22;44792;52.760;6.726;2023-05-10T10:17:48;15.30;99.90
59007;DHT22;44792;52.760;6.726;2023-05-10T10:20:15;15.30;99.90
59007;DHT22;44792;52.760;6.726;2023-05-10T10:22:41;15.30;99.90
59007;DHT22;44792;52.760;6.726;2023-05-10T10:25:07;15.40;99.90
59007;DHT22;44792;52.760;6.726;2023-05-10T10:30:42;15.50;99.90
59007;DHT22;44792;52.760;6.726;2023-05-10T10:33:39;15.40;99.90
59007;DHT22;44792;52.760;6.726;2023-05-10T10:36:06;15.40;99.90
59007;DHT22;44792;52.760;6.726;2023-05-10T10:50:02;15.30;99.90
59007;DHT22;44792;52.760;6.726;2023-05-10T10:55:08;15.50;99.90
59007;DHT22;44792;52.760;6.726;2023-05-10T11:07:55;15.70;99.90
59007;DHT22;44792;52.760;6.726;2023-05-10T11:10:23;15.70;99.90
59007;DHT22;44792;52.760;6.726;2023-05-10T11:13:00;15.70;99.90
59007;DHT22;44792;52.760;6.726;2023-05-10T11:15:34;15.70;99.90
59007;DHT22;44792;52.760;6.726;2023-05-10T11:20:52;15.90;99.90
59007;DHT22;44792;52.760;6.726;2023-05-10T11:23:18;15.80;99.90
59007;DHT22;44792;52.760;6.726;2023-05-10T11:25:45;15.90;99.90
59007;DHT22;44792;52.760;6.726;2023-05-10T11:28:12;16.10;99.90
59007;DHT22;44792;52.760;6.726;2023-05-10T11:30:43;16.10;99.90
59007;DHT22;44792;52.760;6.726;2023-05-10T11:33:09;16.00;99.90
59007;DHT22;44792;52.760;6.726;2023-05-10T11:35:39;16.00;99.90
59007;DHT22;44792;52.760;6.726;2023-05-10T11:38:09;16.00;99.90
59007;DHT22;44792;52.760;6.726;2023-05-10T11:40:35;16.00;99.90
59007;DHT22;44792;52.760;6.726;2023-05-10T11:43:02;16.00;99.90
59007;DHT22;44792;52.760;6.726;2023-05-10T11:45:28;16.10;99.90
59007;DHT22;44792;52.760;6.726;2023-05-10T11:47:58;16.20;99.90
59007;DHT22;44792;52.760;6.726;2023-05-10T11:50:24;16.10;99.90
59007;DHT22;44792;52.760;6.726;2023-05-10T11:52:57;16.10;99.90
59007;DHT22;44792;52.760;6.726;2023-05-10T11:55:24;16.10;99.90
59007;DHT22;44792;52.760;6.726;2023-05-10T11:57:54;16.10;99.90
59007;DHT22;44792;52.760;6.726;2023-05-10T12:00:20;16.10;99.90
59007;DHT22;44792;52.760;6.726;2023-05-10T12:02:46;16.10;99.90
59007;DHT22;44792;52.760;6.726;2023-05-10T12:05:12;16.10;99.90
59007;DHT22;44792;52.760;6.726;2023-05-10T12:07:38;16.00;99.90
59007;DHT22;44792;52.760;6.726;2023-05-10T12:10:12;16.00;99.90
59007;DHT22;44792;52.760;6.726;2023-05-10T12:12:46;16.00;99.90
59007;DHT22;44792;52.760;6.726;2023-05-10T12:15:22;16.10;99.90
59007;DHT22;44792;52.760;6.726;2023-05-10T12:17:49;16.20;99.90
59007;DHT22;44792;52.760;6.726;2023-05-10T12:22:49;16.00;99.90
59007;DHT22;44792;52.760;6.726;2023-05-10T12:25:15;16.00;99.90
59007;DHT22;44792;52.760;6.726;2023-05-10T12:27:51;16.00;99.90
59007;DHT22;44792;52.760;6.726;2023-05-10T12:30:25;16.10;99.90
59007;DHT22;44792;52.760;6.726;2023-05-10T13:41:59;16.50;99.90
59007;DHT22;44792;52.760;6.726;2023-05-10T13:44:25;16.80;99.90
59007;DHT22;44792;52.760;6.726;2023-05-10T13:46:51;16.90;99.90
59007;DHT22;44792;52.760;6.726;2023-05-10T13:49:17;17.00;99.90
59007;DHT22;44792;52.760;6.726;2023-05-10T13:51:43;17.00;99.90
59007;DHT22;44792;52.760;6.726;2023-05-10T13:54:09;17.00;99.90
59007;DHT22;44792;52.760;6.726;2023-05-10T13:56:34;17.10;99.90
59007;DHT22;44792;52.760;6.726;2023-05-10T13:59:00;17.20;99.90
59007;DHT22;44792;52.760;6.726;2023-05-10T14:01:26;17.20;99.90
59007;DHT22;44792;52.760;6.726;2023-05-10T14:03:52;17.20;99.90
59007;DHT22;44792;52.760;6.726;2023-05-10T14:06:18;17.20;99.90
59007;DHT22;44792;52.760;6.726;2023-05-10T14:08:43;17.20;99.90
59007;DHT22;44792;52.760;6.726;2023-05-10T14:11:09;17.10;99.90
59007;DHT22;44792;52.760;6.726;2023-05-10T14:13:35;17.10;99.90
59007;DHT22;44792;52.760;6.726;2023-05-10T14:16:00;17.10;99.90
59007;DHT22;44792;52.760;6.726;2023-05-10T14:18:27;17.20;99.90
59007;DHT22;44792;52.760;6.726;2023-05-10T14:20:52;17.20;99.90
59007;DHT22;44792;52.760;6.726;2023-05-10T14:23:18;17.20;99.90
59007;DHT22;44792;52.760;6.726;2023-05-10T14:25:52;17.20;99.90
59007;DHT22;44792;52.760;6.726;2023-05-10T14:28:18;17.20;99.90
59007;DHT22;44792;52.760;6.726;2023-05-10T14:30:44;17.20;99.90
59007;DHT22;44792;52.760;6.726;2023-05-10T14:33:10;17.30;99.90
59007;DHT22;44792;52.760;6.726;2023-05-10T14:35:36;17.30;99.90
59007;DHT22;44792;52.760;6.726;2023-05-10T14:38:03;17.20;99.90
59007;DHT22;44792;52.760;6.726;2023-05-10T14:40:29;17.30;99.90
59007;DHT22;44792;52.760;6.726;2023-05-10T14:42:55;17.20;99.90
59007;DHT22;44792;52.760;6.726;2023-05-10T14:45:22;17.20;99.90
59007;DHT22;44792;52.760;6.726;2023-05-10T14:47:48;17.10;99.90
59007;DHT22;44792;52.760;6.726;2023-05-10T14:50:14;17.20;99.90
59007;DHT22;44792;52.760;6.726;2023-05-10T14:52:42;17.10;99.90
59007;DHT22;44792;52.760;6.726;2023-05-10T14:55:08;17.10;99.90
59007;DHT22;44792;52.760;6.726;2023-05-10T14:57:33;17.20;99.90
59007;DHT22;44792;52.760;6.726;2023-05-10T14:59:59;17.10;99.90
59007;DHT22;44792;52.760;6.726;2023-05-10T15:02:25;17.10;99.90
59007;DHT22;44792;52.760;6.726;2023-05-10T15:04:51;17.10;99.90
59007;DHT22;44792;52.760;6.726;2023-05-10T15:07:17;17.20;99.90
59007;DHT22;44792;52.760;6.726;2023-05-10T15:09:44;17.20;99.90
59007;DHT22;44792;52.760;6.726;2023-05-10T15:12:10;17.10;99.90
59007;DHT22;44792;52.760;6.726;2023-05-10T15:14:35;17.00;99.90
59007;DHT22;44792;52.760;6.726;2023-05-10T15:17:02;17.00;99.90
59007;DHT22;44792;52.760;6.726;2023-05-10T15:19:28;17.10;99.90
59007;DHT22;44792;52.760;6.726;2023-05-10T15:21:54;17.10;99.90
59007;DHT22;44792;52.760;6.726;2023-05-10T15:24:21;16.90;99.90
59007;DHT22;44792;52.760;6.726;2023-05-10T15:26:47;16.80;99.90
59007;DHT22;44792;52.760;6.726;2023-05-10T15:29:13;16.90;99.90
59007;DHT22;44792;52.760;6.726;2023-05-10T15:31:46;16.90;99.90
59007;DHT22;44792;52.760;6.726;2023-05-10T15:34:11;16.90;99.90
59007;DHT22;44792;52.760;6.726;2023-05-10T15:36:38;16.90;99.90
59007;DHT22;44792;52.760;6.726;2023-05-10T15:39:03;16.80;99.90
59007;DHT22;44792;52.760;6.726;2023-05-10T15:41:29;16.80;99.90
59007;DHT22;44792;52.760;6.726;2023-05-10T15:43:55;16.80;99.90
59007;DHT22;44792;52.760;6.726;2023-05-10T15:46:21;16.80;99.90
59007;DHT22;44792;52.760;6.726;2023-05-10T15:48:47;16.80;99.90
59007;DHT22;44792;52.760;6.726;2023-05-10T15:51:13;16.80;99.90
59007;DHT22;44792;52.760;6.726;2023-05-10T15:53:38;16.80;99.90
59007;DHT22;44792;52.760;6.726;2023-05-10T15:56:04;16.80;99.90
59007;DHT22;44792;52.760;6.726;2023-05-10T15:58:30;16.50;99.90
59007;DHT22;44792;52.760;6.726;2023-05-10T16:00:56;16.50;99.90
59007;DHT22;44792;52.760;6.726;2023-05-10T16:03:22;16.50;99.90
59007;DHT22;44792;52.760;6.726;2023-05-10T16:05:48;16.50;99.90
59007;DHT22;44792;52.760;6.726;2023-05-10T16:08:14;16.50;99.90
59007;DHT22;44792;52.760;6.726;2023-05-10T16:10:39;16.40;99.90
59007;DHT22;44792;52.760;6.726;2023-05-10T16:13:06;16.50;99.90
59007;DHT22;44792;52.760;6.726;2023-05-10T16:15:31;16.60;99.90
59007;DHT22;44792;52.760;6.726;2023-05-10T16:17:57;16.60;99.90
59007;DHT22;44792;52.760;6.726;2023-05-10T16:20:23;16.60;99.90
59007;DHT22;44792;52.760;6.726;2023-05-10T16:22:48;16.60;99.90
59007;DHT22;44792;52.760;6.726;2023-05-10T16:25:14;16.70;99.90
59007;DHT22;44792;52.760;6.726;2023-05-10T16:27:40;16.70;99.90
59007;DHT22;44792;52.760;6.726;2023-05-10T16:30:08;16.70;99.90
59007;DHT22;44792;52.760;6.726;2023-05-10T16:32:33;16.70;99.90
59007;DHT22;44792;52.760;6.726;2023-05-10T16:34:59;16.70;99.90
59007;DHT22;44792;52.760;6.726;2023-05-10T16:37:25;16.70;99.90
59007;DHT22;44792;52.760;6.726;2023-05-10T16:39:51;16.70;99.90
59007;DHT22;44792;52.760;6.726;2023-05-10T16:42:17;16.60;99.90
59007;DHT22;44792;52.760;6.726;2023-05-10T16:44:43;16.60;99.90
59007;DHT22;44792;52.760;6.726;2023-05-10T16:47:08;16.60;99.90
59007;DHT22;44792;52.760;6.726;2023-05-10T16:49:35;16.60;99.90
59007;DHT22;44792;52.760;6.726;2023-05-10T16:52:01;16.70;99.90
59007;DHT22;44792;52.760;6.726;2023-05-10T16:54:28;16.70;99.90
59007;DHT22;44792;52.760;6.726;2023-05-10T16:56:53;16.70;99.90
59007;DHT22;44792;52.760;6.726;2023-05-10T16:59:19;16.70;99.90
59007;DHT22;44792;52.760;6.726;2023-05-10T17:01:45;16.70;99.90
59007;DHT22;44792;52.760;6.726;2023-05-10T17:04:11;16.80;99.90
59007;DHT22;44792;52.760;6.726;2023-05-10T17:06:38;16.70;99.90
59007;DHT22;44792;52.760;6.726;2023-05-10T17:09:04;16.70;99.90
59007;DHT22;44792;52.760;6.726;2023-05-10T17:11:30;16.70;99.90
59007;DHT22;44792;52.760;6.726;2023-05-10T17:13:58;16.60;99.90
59007;DHT22;44792;52.760;6.726;2023-05-10T17:16:23;16.60;99.90
59007;DHT22;44792;52.760;6.726;2023-05-10T17:18:49;16.60;99.90
59007;DHT22;44792;52.760;6.726;2023-05-10T17:21:15;16.60;99.90
59007;DHT22;44792;52.760;6.726;2023-05-10T17:23:41;16.60;99.90
59007;DHT22;44792;52.760;6.726;2023-05-10T17:26:07;16.60;99.90
59007;DHT22;44792;52.760;6.726;2023-05-10T17:28:32;16.60;99.90
59007;DHT22;44792;52.760;6.726;2023-05-10T17:30:58;16.50;99.90